Time;durP1;ratioP1;P1;durP2;ratioP2;P2;SDS_P1;SDS_P2;PMS_P1;PMS_P2;Temp;Humidity;BMP_temperature;BMP_pressure;BME280_temperature;BME280_humidity;BME280_pressure;Samples;Min_cycle;Max_cycle;Signal;HPM_P1;HPM_P2
2024/02/23 00:00:05;;;;;;;0.50;0.50;;;;;;;1.98;100.00;97761.59;5042381;28;20032;-74
2024/02/23 00:02:34;;;;;;;0.50;0.50;;;;;;;1.96;100.00;97763.66;5058909;28;20023;-75
2024/02/23 00:04:59;;;;;;;0.40;0.40;;;;;;;1.95;100.00;97762.00;5058731;28;20062;-74
2024/02/23 00:07:25;;;;;;;0.50;0.50;;;;;;;1.98;100.00;97756.31;5042349;28;20093;-74
2024/02/23 00:09:50;;;;;;;0.50;0.50;;;;;;;2.06;100.00;97752.69;5042264;28;20451;-75
2024/02/23 00:12:16;;;;;;;0.50;0.50;;;;;;;2.07;100.00;97744.53;5042181;28;20476;-75
2024/02/23 00:14:42;;;;;;;0.50;0.50;;;;;;;2.10;100.00;97753.94;5058249;28;20033;-75
2024/02/23 00:17:07;;;;;;;0.40;0.40;;;;;;;2.20;100.00;97754.41;5042095;28;20032;-75
2024/02/23 00:19:33;;;;;;;0.40;0.40;;;;;;;2.21;100.00;97756.03;5041688;28;20031;-75
2024/02/23 00:21:59;;;;;;;0.50;0.50;;;;;;;2.19;100.00;97763.34;5075114;28;20062;-74
2024/02/23 00:24:28;;;;;;;0.50;0.50;;;;;;;2.16;100.00;97764.56;5074998;28;20074;-74
2024/02/23 00:26:54;;;;;;;0.50;0.50;;;;;;;2.19;100.00;97756.22;5041889;28;20451;-74
2024/02/23 00:29:21;;;;;;;0.50;0.50;;;;;;;2.23;100.00;97755.84;5041621;28;20363;-74
2024/02/23 00:31:47;;;;;;;0.50;0.50;;;;;;;2.29;100.00;97753.22;5041883;28;20036;-75
2024/02/23 00:34:13;;;;;;;0.50;0.50;;;;;;;2.38;100.00;97752.06;5041689;28;20105;-74
2024/02/23 00:36:41;;;;;;;0.50;0.50;;;;;;;2.55;100.00;97751.72;5074516;28;20033;-75
2024/02/23 00:39:07;;;;;;;0.45;0.45;;;;;;;2.63;100.00;97748.88;5041706;28;20028;-74
2024/02/23 00:41:34;;;;;;;0.40;0.40;;;;;;;2.60;100.00;97744.78;5074801;28;20032;-75
2024/02/23 00:43:59;;;;;;;0.50;0.50;;;;;;;2.62;100.00;97748.06;5057704;28;20020;-75
2024/02/23 00:46:25;;;;;;;0.40;0.40;;;;;;;2.64;100.00;97742.53;5074666;28;20033;-74
2024/02/23 00:48:51;;;;;;;0.50;0.50;;;;;;;2.58;100.00;97738.03;5042387;28;20035;-75
2024/02/23 00:51:16;;;;;;;0.50;0.50;;;;;;;2.50;100.00;97740.88;5041583;28;20447;-75
2024/02/23 00:53:42;;;;;;;0.40;0.40;;;;;;;2.42;100.00;97737.38;5041466;28;20036;-74
2024/02/23 00:56:08;;;;;;;0.50;0.50;;;;;;;2.36;100.00;97737.34;5041452;28;20028;-75
2024/02/23 00:58:33;;;;;;;0.50;0.50;;;;;;;2.35;100.00;97741.00;5041318;28;20029;-74
2024/02/23 01:00:59;;;;;;;0.50;0.50;;;;;;;2.31;100.00;97734.47;5074015;28;20024;-75
2024/02/23 01:03:25;;;;;;;0.50;0.50;;;;;;;2.31;100.00;97734.47;5058383;28;20040;-74
2024/02/23 01:05:51;;;;;;;0.40;0.40;;;;;;;2.36;100.00;97724.09;5041813;28;20366;-74
2024/02/23 01:08:17;;;;;;;0.50;0.50;;;;;;;2.49;100.00;97748.00;5074348;28;20365;-74
2024/02/23 01:10:42;;;;;;;0.50;0.50;;;;;;;2.55;100.00;97787.00;5073911;28;20463;-75
2024/02/23 01:13:08;;;;;;;0.50;0.50;;;;;;;2.64;100.00;97792.94;5041132;28;20050;-75
2024/02/23 01:15:34;;;;;;;0.50;0.50;;;;;;;2.52;100.00;97782.09;5057587;28;20028;-75
2024/02/23 01:18:00;;;;;;;0.40;0.40;;;;;;;2.46;100.00;97779.41;5040985;28;20367;-75
2024/02/23 01:20:25;;;;;;;0.50;0.50;;;;;;;2.41;100.00;97766.75;5040747;28;20358;-75
2024/02/23 01:22:51;;;;;;;0.40;0.40;;;;;;;2.45;100.00;97770.63;5040857;28;20028;-74
2024/02/23 01:25:17;;;;;;;0.50;0.50;;;;;;;2.47;100.00;97768.59;5040232;28;20024;-74
2024/02/23 01:27:44;;;;;;;0.50;0.50;;;;;;;2.50;100.00;97760.25;5040614;28;20032;-75
2024/02/23 01:30:10;;;;;;;0.40;0.40;;;;;;;2.56;100.00;97762.09;5040961;28;20028;-74
2024/02/23 01:32:38;;;;;;;0.40;0.40;;;;;;;2.53;100.00;97751.91;5057004;28;20025;-74
2024/02/23 01:35:07;;;;;;;0.40;0.40;;;;;;;2.61;100.00;97740.28;5040912;28;20030;-75
2024/02/23 01:37:34;;;;;;;0.50;0.50;;;;;;;2.56;100.00;97732.13;5056865;28;20054;-76
2024/02/23 01:39:59;;;;;;;0.50;0.50;;;;;;;2.60;100.00;97746.63;5073664;28;20030;-75
2024/02/23 01:42:25;;;;;;;0.50;0.50;;;;;;;2.61;100.00;97741.09;5040507;28;20077;-76
2024/02/23 01:44:52;;;;;;;0.50;0.50;;;;;;;2.61;100.00;97735.78;5056857;28;20028;-76
2024/02/23 01:47:18;;;;;;;0.50;0.50;;;;;;;2.63;100.00;97744.38;5073402;28;20024;-76
2024/02/23 01:49:45;;;;;;;0.50;0.50;;;;;;;2.67;100.00;97741.31;5073548;28;20036;-76
2024/02/23 01:52:11;;;;;;;0.40;0.40;;;;;;;2.71;100.00;97755.84;5056457;28;20043;-75
2024/02/23 01:54:37;;;;;;;0.50;0.50;;;;;;;2.76;100.00;97754.22;5057441;28;20098;-76
2024/02/23 01:57:03;;;;;;;0.40;0.40;;;;;;;2.78;100.00;97757.50;5073014;28;20451;-76
2024/02/23 01:59:29;;;;;;;0.50;0.50;;;;;;;2.78;100.00;97761.97;5040195;28;20028;-75
2024/02/23 02:01:55;;;;;;;0.50;0.50;;;;;;;2.81;100.00;97758.94;5023461;28;20435;-76
2024/02/23 02:04:21;;;;;;;0.50;0.50;;;;;;;2.84;100.00;97761.19;5039955;28;20032;-76
2024/02/23 02:06:47;;;;;;;0.40;0.40;;;;;;;2.76;100.00;97761.38;5040076;28;20090;-76
2024/02/23 02:09:13;;;;;;;0.40;0.40;;;;;;;2.65;100.00;97765.41;5056677;28;20031;-76
2024/02/23 02:11:48;;;;;;;0.50;0.50;;;;;;;2.49;100.00;97760.44;5039714;28;20032;-76
2024/02/23 02:14:15;;;;;;;0.40;0.40;;;;;;;2.43;100.00;97767.34;5056787;28;20151;-76
2024/02/23 02:16:41;;;;;;;0.40;0.40;;;;;;;2.38;100.00;97773.25;5072957;28;20030;-76
2024/02/23 02:19:06;;;;;;;0.40;0.40;;;;;;;2.41;100.00;97772.88;5056575;28;20105;-76
2024/02/23 02:21:33;;;;;;;0.50;0.50;;;;;;;2.42;100.00;97763.06;5072883;28;20031;-76
2024/02/23 02:23:59;;;;;;;0.50;0.50;;;;;;;2.45;100.00;97767.97;5055998;28;20374;-76
2024/02/23 02:26:24;;;;;;;0.50;0.50;;;;;;;2.48;100.00;97764.13;5039757;28;20034;-76
2024/02/23 02:28:50;;;;;;;0.50;0.50;;;;;;;2.49;100.00;97781.66;5039685;28;20047;-76
2024/02/23 02:31:16;;;;;;;0.50;0.50;;;;;;;2.52;100.00;97791.88;5039355;28;20036;-76
2024/02/23 02:33:41;;;;;;;0.40;0.40;;;;;;;2.58;100.00;97791.91;5055740;28;20427;-76
2024/02/23 02:36:07;;;;;;;0.40;0.40;;;;;;;2.60;100.00;97792.53;5056180;28;20025;-76
2024/02/23 02:38:33;;;;;;;0.50;0.50;;;;;;;2.57;100.00;97784.16;5038703;28;20057;-76
2024/02/23 02:41:00;;;;;;;0.50;0.50;;;;;;;2.47;100.00;97771.25;5039468;28;20024;-76
2024/02/23 02:43:26;;;;;;;0.50;0.50;;;;;;;2.32;100.00;97763.41;5039811;28;20039;-76
2024/02/23 02:45:52;;;;;;;0.50;0.50;;;;;;;2.06;100.00;97742.88;5039523;28;20032;-76
2024/02/23 02:48:18;;;;;;;0.50;0.50;;;;;;;1.87;100.00;97743.59;5056091;28;20432;-76
2024/02/23 02:50:44;;;;;;;0.50;0.50;;;;;;;1.66;100.00;97728.59;5039337;28;20098;-76
2024/02/23 02:53:10;;;;;;;0.40;0.40;;;;;;;1.52;100.00;97728.50;5039970;28;20077;-76
2024/02/23 02:55:36;;;;;;;0.50;0.50;;;;;;;1.44;100.00;97733.13;5072423;28;20093;-76
2024/02/23 02:58:02;;;;;;;0.50;0.50;;;;;;;1.33;100.00;97742.41;5039348;28;20493;-75
2024/02/23 03:00:28;;;;;;;0.40;0.40;;;;;;;1.28;100.00;97737.66;5039176;28;20036;-76
2024/02/23 03:02:56;;;;;;;0.60;0.60;;;;;;;1.21;100.00;97731.50;5039351;28;20025;-76
2024/02/23 03:05:21;;;;;;;0.50;0.50;;;;;;;1.05;100.00;97739.69;5055594;28;20093;-76
2024/02/23 03:07:47;;;;;;;0.50;0.50;;;;;;;0.96;100.00;97727.63;5039110;28;20409;-76
2024/02/23 03:10:13;;;;;;;0.50;0.50;;;;;;;0.87;100.00;97724.25;5039264;28;20028;-76
2024/02/23 03:12:38;;;;;;;0.50;0.50;;;;;;;0.86;100.00;97723.44;5039204;28;20082;-76
2024/02/23 03:15:05;;;;;;;0.50;0.50;;;;;;;0.78;100.00;97720.09;5072594;28;20040;-76
2024/02/23 03:17:31;;;;;;;0.50;0.50;;;;;;;0.69;100.00;97729.16;5055660;28;20028;-76
2024/02/23 03:19:57;;;;;;;0.43;0.43;;;;;;;0.56;100.00;97721.91;5055215;28;20028;-76
2024/02/23 03:22:23;;;;;;;0.50;0.50;;;;;;;0.49;100.00;97728.94;5039902;28;20071;-75
2024/02/23 03:24:48;;;;;;;0.50;0.50;;;;;;;0.41;100.00;97724.56;5039088;28;20399;-76
2024/02/23 03:27:14;;;;;;;0.40;0.40;;;;;;;0.31;100.00;97731.97;5039104;28;20451;-76
2024/02/23 03:29:40;;;;;;;0.50;0.50;;;;;;;0.24;100.00;97721.34;5039074;28;20051;-75
2024/02/23 03:32:06;;;;;;;0.50;0.50;;;;;;;0.27;100.00;97720.97;5039111;28;20028;-75
2024/02/23 03:34:31;;;;;;;0.50;0.50;;;;;;;0.27;100.00;97720.97;5022521;28;20382;-76
2024/02/23 03:37:02;;;;;;;0.50;0.50;;;;;;;0.32;100.00;97729.16;5038948;28;20033;-75
2024/02/23 03:39:28;;;;;;;0.40;0.40;;;;;;;0.42;100.00;97724.41;5056170;28;20043;-75
2024/02/23 03:41:54;;;;;;;0.50;0.50;;;;;;;0.58;100.00;97719.88;5055587;28;20529;-75
2024/02/23 03:44:20;;;;;;;0.50;0.50;;;;;;;0.63;100.00;97728.06;5054855;28;20024;-75
2024/02/23 03:46:46;;;;;;;0.40;0.40;;;;;;;0.62;100.00;97718.50;5038848;28;20029;-75
2024/02/23 03:49:12;;;;;;;0.50;0.50;;;;;;;0.69;100.00;97724.69;5072760;28;20041;-75
2024/02/23 03:51:39;;;;;;;0.50;0.50;;;;;;;0.70;100.00;97721.03;5026205;28;20029;-75
2024/02/23 03:54:05;;;;;;;0.40;0.40;;;;;;;0.68;100.00;97717.75;5059397;28;20115;-75
2024/02/23 03:56:40;;;;;;;0.50;0.50;;;;;;;0.78;100.00;97712.97;5026057;28;20078;-76
2024/02/23 03:59:05;;;;;;;0.50;0.50;;;;;;;0.87;100.00;97711.88;5026299;28;20481;-75
2024/02/23 04:01:31;;;;;;;0.50;0.50;;;;;;;0.97;100.00;97710.72;5042448;28;20032;-75
2024/02/23 04:03:57;;;;;;;0.50;0.50;;;;;;;1.06;100.00;97714.88;5042248;28;20052;-76
2024/02/23 04:06:22;;;;;;;0.50;0.50;;;;;;;1.20;100.00;97716.63;5042320;28;20031;-75
2024/02/23 04:08:48;;;;;;;0.50;0.50;;;;;;;1.29;100.00;97714.66;5042299;28;20039;-75
2024/02/23 04:11:13;;;;;;;0.50;0.50;;;;;;;1.40;100.00;97718.63;5042220;28;20028;-75
2024/02/23 04:13:39;;;;;;;0.57;0.57;;;;;;;1.47;100.00;97722.94;5058778;28;20032;-76
2024/02/23 04:16:05;;;;;;;0.50;0.50;;;;;;;1.56;100.00;97728.91;5042127;28;20081;-75
2024/02/23 04:18:32;;;;;;;0.50;0.50;;;;;;;1.70;100.00;97720.06;5042037;28;20032;-75
2024/02/23 04:20:57;;;;;;;0.50;0.50;;;;;;;1.81;100.00;97724.00;5041943;28;20127;-75
2024/02/23 04:23:23;;;;;;;0.50;0.50;;;;;;;1.90;100.00;97716.72;5041940;28;20442;-75
2024/02/23 04:25:50;;;;;;;0.50;0.50;;;;;;;1.97;100.00;97714.94;5041927;28;20067;-75
2024/02/23 04:28:16;;;;;;;0.50;0.50;;;;;;;2.03;100.00;97719.44;5058274;28;20044;-75
2024/02/23 04:30:42;;;;;;;0.50;0.50;;;;;;;2.05;100.00;97709.47;5058386;28;20024;-75
2024/02/23 04:33:08;;;;;;;0.50;0.50;;;;;;;2.12;100.00;97707.69;5042508;28;20039;-75
2024/02/23 04:35:33;;;;;;;0.40;0.40;;;;;;;2.19;100.00;97719.09;5042313;28;20346;-75
2024/02/23 04:37:59;;;;;;;0.50;0.50;;;;;;;2.23;100.00;97716.09;5042642;28;20446;-75
2024/02/23 04:40:25;;;;;;;0.50;0.50;;;;;;;2.26;100.00;97715.69;5058317;28;20442;-75
2024/02/23 04:42:50;;;;;;;0.50;0.50;;;;;;;2.25;100.00;97729.94;5074831;28;20037;-75
2024/02/23 04:45:16;;;;;;;0.50;0.50;;;;;;;2.18;100.00;97730.72;5041376;28;20063;-74
2024/02/23 04:47:42;;;;;;;0.40;0.40;;;;;;;2.17;100.00;97730.91;5058262;28;20021;-75
2024/02/23 04:50:09;;;;;;;0.50;0.50;;;;;;;2.17;100.00;97736.22;5074806;28;20036;-75
2024/02/23 04:52:34;;;;;;;0.50;0.50;;;;;;;2.16;100.00;97735.41;5074239;28;20024;-75
2024/02/23 04:55:01;;;;;;;0.50;0.50;;;;;;;2.23;100.00;97732.81;5041436;28;20055;-74
2024/02/23 04:57:27;;;;;;;0.47;0.47;;;;;;;2.28;100.00;97734.88;5058151;28;20029;-74
2024/02/23 04:59:53;;;;;;;0.50;0.50;;;;;;;2.32;100.00;97731.59;5041178;28;20032;-75
2024/02/23 05:02:18;;;;;;;0.47;0.47;;;;;;;2.33;100.00;97719.16;5040674;28;20029;-75
2024/02/23 05:04:44;;;;;;;0.40;0.40;;;;;;;2.27;100.00;97717.31;5041031;28;20370;-75
2024/02/23 05:07:10;;;;;;;0.50;0.50;;;;;;;2.30;100.00;97719.56;5074523;28;20024;-75
2024/02/23 05:09:36;;;;;;;0.50;0.50;;;;;;;2.37;100.00;97733.69;5057591;28;20087;-75
2024/02/23 05:12:01;;;;;;;0.50;0.50;;;;;;;2.40;100.00;97726.13;5073879;28;20098;-75
2024/02/23 05:14:27;;;;;;;0.50;0.50;;;;;;;2.43;100.00;97719.63;5058188;28;20043;-75
2024/02/23 05:16:53;;;;;;;0.40;0.40;;;;;;;2.44;100.00;97718.63;5057301;28;20459;-75
2024/02/23 05:19:18;;;;;;;0.50;0.50;;;;;;;2.41;100.00;97708.41;5041442;28;20062;-75
2024/02/23 05:21:44;;;;;;;0.40;0.40;;;;;;;2.40;100.00;97712.88;5057381;28;20037;-75
2024/02/23 05:24:11;;;;;;;0.50;0.50;;;;;;;2.43;100.00;97714.31;5040752;28;20052;-75
2024/02/23 05:26:36;;;;;;;0.50;0.50;;;;;;;2.43;100.00;97709.00;5040651;28;20042;-75
2024/02/23 05:29:03;;;;;;;0.50;0.50;;;;;;;2.49;100.00;97720.66;5040764;28;20099;-75
2024/02/23 05:31:49;;;;;;;0.50;0.50;;;;;;;2.56;100.00;97732.94;5040856;28;20055;-75
2024/02/23 05:34:14;;;;;;;0.50;0.50;;;;;;;2.53;100.00;97728.03;5040902;28;20061;-75
2024/02/23 05:36:40;;;;;;;0.50;0.50;;;;;;;2.49;100.00;97723.31;5040676;28;20065;-75
2024/02/23 05:39:07;;;;;;;0.50;0.50;;;;;;;2.43;100.00;97724.91;5040653;28;20033;-75
2024/02/23 05:41:33;;;;;;;0.50;0.50;;;;;;;2.44;100.00;97715.16;5040706;28;20029;-75
2024/02/23 05:43:59;;;;;;;0.50;0.50;;;;;;;2.45;100.00;97720.25;5056893;28;20025;-75
2024/02/23 05:46:25;;;;;;;0.50;0.50;;;;;;;2.44;100.00;97717.81;5040421;28;20028;-75
2024/02/23 05:48:50;;;;;;;0.40;0.40;;;;;;;2.47;100.00;97720.06;5040413;28;20035;-75
2024/02/23 05:51:16;;;;;;;0.50;0.50;;;;;;;2.51;100.00;97722.09;5040368;28;20040;-75
2024/02/23 05:53:42;;;;;;;0.50;0.50;;;;;;;2.54;100.00;97728.84;5041198;28;20123;-75
2024/02/23 05:56:07;;;;;;;0.40;0.40;;;;;;;2.56;100.00;97721.50;5040357;28;20451;-75
2024/02/23 05:58:33;;;;;;;0.40;0.40;;;;;;;2.56;100.00;97722.31;5040238;28;20032;-75
2024/02/23 06:00:59;;;;;;;0.50;0.50;;;;;;;2.58;100.00;97722.94;5040098;28;20082;-75
2024/02/23 06:03:24;;;;;;;0.50;0.50;;;;;;;2.53;100.00;97730.69;5040100;28;20029;-75
2024/02/23 06:05:50;;;;;;;0.40;0.40;;;;;;;2.46;100.00;97731.66;5040371;28;20127;-76
2024/02/23 06:08:15;;;;;;;0.50;0.50;;;;;;;2.44;100.00;97725.75;5040115;28;20035;-75
2024/02/23 06:10:42;;;;;;;0.40;0.40;;;;;;;2.50;100.00;97733.72;5056483;28;20456;-75
2024/02/23 06:13:08;;;;;;;0.50;0.50;;;;;;;2.52;100.00;97730.88;5056490;28;20052;-75
2024/02/23 06:15:34;;;;;;;0.50;0.50;;;;;;;2.50;100.00;97739.03;5039617;28;20505;-75
2024/02/23 06:17:59;;;;;;;0.50;0.50;;;;;;;2.42;100.00;97724.09;5040526;28;20032;-75
2024/02/23 06:20:25;;;;;;;0.50;0.50;;;;;;;2.40;100.00;97734.09;5039845;28;20394;-75
2024/02/23 06:22:50;;;;;;;0.50;0.50;;;;;;;2.38;100.00;97722.88;5039802;28;20443;-75
2024/02/23 06:25:16;;;;;;;0.50;0.50;;;;;;;2.32;100.00;97721.00;5039512;28;20024;-75
2024/02/23 06:27:42;;;;;;;0.50;0.50;;;;;;;2.21;100.00;97726.88;5039726;28;20035;-75
2024/02/23 06:30:08;;;;;;;0.50;0.50;;;;;;;2.12;100.00;97725.41;5055793;28;20044;-75
2024/02/23 06:32:34;;;;;;;0.50;0.50;;;;;;;2.04;100.00;97725.56;5039678;28;20028;-75
2024/02/23 06:35:00;;;;;;;0.50;0.50;;;;;;;2.02;100.00;97725.75;5039552;28;20082;-75
2024/02/23 06:37:25;;;;;;;0.50;0.50;;;;;;;2.10;100.00;97725.59;5040426;28;20028;-75
2024/02/23 06:39:54;;;;;;;0.50;0.50;;;;;;;2.19;100.00;97728.91;5056212;28;20447;-75
2024/02/23 06:42:22;;;;;;;0.50;0.50;;;;;;;2.23;100.00;97726.69;5039674;28;20025;-75
2024/02/23 06:44:48;;;;;;;0.40;0.40;;;;;;;2.23;100.00;97732.00;5039355;28;20672;-75
2024/02/23 06:47:14;;;;;;;0.50;0.50;;;;;;;2.24;100.00;97730.97;5056145;28;20089;-75
2024/02/23 06:49:43;;;;;;;0.50;0.50;;;;;;;2.25;100.00;97738.72;5055935;28;20103;-75
2024/02/23 06:52:10;;;;;;;0.50;0.50;;;;;;;2.24;100.00;97731.78;5023203;28;20048;-75
2024/02/23 06:54:36;;;;;;;0.50;0.50;;;;;;;2.29;100.00;97736.50;5055882;28;20040;-75
2024/02/23 06:57:01;;;;;;;0.50;0.50;;;;;;;2.30;100.00;97733.66;5055751;28;20028;-75
2024/02/23 06:59:27;;;;;;;0.50;0.50;;;;;;;2.36;100.00;97742.66;5055692;28;20107;-75
2024/02/23 07:01:53;;;;;;;0.50;0.50;;;;;;;2.36;100.00;97740.00;5072293;28;20107;-75
2024/02/23 07:04:19;;;;;;;0.50;0.50;;;;;;;2.30;100.00;97746.06;5055862;28;20060;-75
2024/02/23 07:06:44;;;;;;;0.50;0.50;;;;;;;2.18;100.00;97741.34;5039206;28;20367;-75
2024/02/23 07:09:11;;;;;;;0.50;0.50;;;;;;;2.06;100.00;97736.78;5039248;28;20032;-75
2024/02/23 07:11:41;;;;;;;0.50;0.50;;;;;;;1.97;100.00;97747.53;5072316;28;20059;-75
2024/02/23 07:14:09;;;;;;;0.50;0.50;;;;;;;1.94;100.00;97744.47;5056538;28;20039;-75
2024/02/23 07:16:39;;;;;;;0.50;0.50;;;;;;;1.92;100.00;97757.09;5055546;28;20470;-76
2024/02/23 07:19:05;;;;;;;0.50;0.50;;;;;;;1.91;100.00;97750.16;5055774;28;20041;-75
2024/02/23 07:21:31;;;;;;;0.43;0.43;;;;;;;1.97;100.00;97752.03;5039208;28;20481;-75
2024/02/23 07:23:56;;;;;;;0.40;0.40;;;;;;;2.07;100.00;97754.34;5039891;28;20027;-75
2024/02/23 07:26:22;;;;;;;0.40;0.40;;;;;;;2.09;100.00;97758.44;5043048;28;20028;-75
2024/02/23 07:28:49;;;;;;;0.50;0.50;;;;;;;2.04;100.00;97750.25;5043064;28;20094;-75
2024/02/23 07:31:15;;;;;;;0.50;0.50;;;;;;;2.03;100.00;97747.78;5076672;28;20020;-75
2024/02/23 07:33:42;;;;;;;0.50;0.50;;;;;;;2.02;100.00;97746.16;5059076;28;20032;-75
2024/02/23 07:36:09;;;;;;;0.50;0.50;;;;;;;1.97;100.00;97747.53;5026680;28;20028;-75
2024/02/23 07:38:35;;;;;;;0.40;0.40;;;;;;;1.94;100.00;97755.88;5076063;28;20074;-75
2024/02/23 07:41:01;;;;;;;0.50;0.50;;;;;;;1.93;100.00;97758.72;5059300;28;20032;-75
2024/02/23 07:43:28;;;;;;;0.50;0.50;;;;;;;1.90;100.00;97759.91;5059430;28;20024;-75
2024/02/23 07:45:54;;;;;;;0.50;0.50;;;;;;;1.87;100.00;97760.31;5075493;28;20028;-75
2024/02/23 07:48:19;;;;;;;0.50;0.50;;;;;;;1.86;100.00;97757.88;5058982;28;20451;-75
2024/02/23 07:50:45;;;;;;;0.50;0.50;;;;;;;1.85;100.00;97753.56;5042619;28;20028;-75
2024/02/23 07:53:11;;;;;;;0.50;0.50;;;;;;;1.88;100.00;97758.47;5042276;28;20037;-75
2024/02/23 07:55:36;;;;;;;0.50;0.50;;;;;;;1.90;100.00;97748.50;5043108;28;20036;-75
2024/02/23 07:58:02;;;;;;;0.50;0.50;;;;;;;2.00;100.00;97758.78;5042504;28;20450;-75
2024/02/23 08:00:28;;;;;;;0.50;0.50;;;;;;;2.12;100.00;97778.44;5058461;28;20020;-75
2024/02/23 08:02:56;;;;;;;0.50;0.50;;;;;;;2.18;100.00;97773.16;5058495;28;20043;-75
2024/02/23 08:05:23;;;;;;;0.50;0.50;;;;;;;2.27;100.00;97778.28;5059113;28;20529;-75
2024/02/23 08:07:49;;;;;;;0.50;0.50;;;;;;;2.36;100.00;97774.47;5058915;28;20090;-75
2024/02/23 08:10:15;;;;;;;0.50;0.50;;;;;;;2.51;100.00;97774.31;5042245;28;20205;-75
2024/02/23 08:12:40;;;;;;;0.50;0.50;;;;;;;2.56;100.00;97770.06;5042003;28;20038;-75
2024/02/23 08:15:07;;;;;;;0.60;0.60;;;;;;;2.65;100.00;97770.72;5042209;28;20072;-75
2024/02/23 08:17:32;;;;;;;0.50;0.50;;;;;;;2.70;100.00;97773.59;5058904;28;20028;-75
2024/02/23 08:19:58;;;;;;;0.50;0.50;;;;;;;2.76;100.00;97786.06;5058576;28;20043;-75
2024/02/23 08:22:23;;;;;;;0.50;0.50;;;;;;;2.79;100.00;97784.84;5042080;28;20035;-75
2024/02/23 08:24:49;;;;;;;0.50;0.50;;;;;;;2.80;100.00;97794.44;5041808;28;20025;-75
2024/02/23 08:27:15;;;;;;;0.50;0.50;;;;;;;2.81;100.00;97798.75;5025320;28;20033;-75
2024/02/23 08:29:41;;;;;;;0.60;0.60;;;;;;;2.85;100.00;97802.63;5041929;28;20024;-75
2024/02/23 08:32:07;;;;;;;0.50;0.50;;;;;;;2.87;100.00;97808.56;5042001;28;20454;-75
2024/02/23 08:34:34;;;;;;;0.50;0.50;;;;;;;2.88;100.00;97798.75;5025300;28;20102;-75
2024/02/23 08:37:01;;;;;;;0.50;0.50;;;;;;;2.89;100.00;97803.06;5057033;28;20052;-75
2024/02/23 08:39:28;;;;;;;0.50;0.50;;;;;;;2.88;100.00;97819.97;5058549;28;20060;-75
2024/02/23 08:41:54;;;;;;;0.50;0.50;;;;;;;2.89;100.00;97814.50;5058193;28;20081;-75
2024/02/23 08:44:20;;;;;;;0.50;0.50;;;;;;;2.92;100.00;97810.63;5041538;28;20028;-75
2024/02/23 08:46:48;;;;;;;0.50;0.50;;;;;;;2.96;100.00;97803.88;5041471;28;20454;-75
2024/02/23 08:49:14;;;;;;;0.50;0.50;;;;;;;2.98;100.00;97805.31;5058213;28;20115;-75
2024/02/23 08:51:40;;;;;;;0.50;0.50;;;;;;;3.03;100.00;97805.53;5041909;28;20024;-75
2024/02/23 08:54:08;;;;;;;0.50;0.50;;;;;;;3.11;100.00;97809.03;5041570;28;20036;-75
2024/02/23 08:56:38;;;;;;;0.50;0.50;;;;;;;3.13;100.00;97821.09;5041834;28;20029;-75
2024/02/23 08:59:05;;;;;;;0.50;0.50;;;;;;;3.11;100.00;97830.28;5058259;28;20064;-75
2024/02/23 09:01:30;;;;;;;0.50;0.50;;;;;;;3.07;100.00;97843.13;5041288;28;20070;-75
2024/02/23 09:03:56;;;;;;;0.50;0.50;;;;;;;3.05;100.00;97848.63;5041114;28;20025;-75
2024/02/23 09:06:22;;;;;;;0.50;0.50;;;;;;;3.12;100.00;97850.47;5041255;28;20036;-75
2024/02/23 09:08:47;;;;;;;0.52;0.52;;;;;;;3.22;100.00;97853.59;5041254;28;20370;-75
2024/02/23 09:11:15;;;;;;;0.50;0.50;;;;;;;3.24;100.00;97848.91;5041238;28;20375;-75
2024/02/23 09:13:42;;;;;;;0.50;0.50;;;;;;;3.20;100.00;97858.25;5057648;28;20063;-75
2024/02/23 09:16:08;;;;;;;0.40;0.40;;;;;;;3.04;100.00;97857.63;5041470;28;20028;-75
2024/02/23 09:18:34;;;;;;;0.50;0.50;;;;;;;2.88;100.00;97859.78;5041699;28;20123;-75
2024/02/23 09:21:00;;;;;;;0.50;0.50;;;;;;;2.75;100.00;97856.06;5057477;28;20028;-75
2024/02/23 09:23:26;;;;;;;0.50;0.50;;;;;;;2.66;100.00;97856.44;5056897;28;20047;-75
2024/02/23 09:25:52;;;;;;;0.50;0.50;;;;;;;2.60;100.00;97871.28;5073686;28;20023;-75
2024/02/23 09:28:18;;;;;;;0.50;0.50;;;;;;;2.56;100.00;97864.72;5040753;28;20033;-75
2024/02/23 09:30:43;;;;;;;0.50;0.50;;;;;;;2.55;100.00;97873.72;5073822;28;20021;-74
2024/02/23 09:33:09;;;;;;;0.50;0.50;;;;;;;2.49;100.00;97880.63;5057186;28;20017;-74
2024/02/23 09:35:35;;;;;;;0.50;0.50;;;;;;;2.48;100.00;97871.00;5040628;28;20036;-75
2024/02/23 09:38:00;;;;;;;0.40;0.40;;;;;;;2.55;100.00;97873.72;5040348;28;20028;-74
2024/02/23 09:40:26;;;;;;;0.50;0.50;;;;;;;2.62;100.00;97880.69;5040298;28;20047;-75
2024/02/23 09:42:56;;;;;;;0.50;0.50;;;;;;;2.75;100.00;97887.06;5040532;28;20051;-75
2024/02/23 09:45:27;;;;;;;0.50;0.50;;;;;;;2.81;100.00;97881.00;5073532;28;20024;-75
2024/02/23 09:47:57;;;;;;;0.50;0.50;;;;;;;2.90;100.00;97879.81;5040390;28;20463;-75
2024/02/23 09:50:23;;;;;;;0.50;0.50;;;;;;;2.96;100.00;97880.84;5040313;28;20107;-75
2024/02/23 09:52:52;;;;;;;0.50;0.50;;;;;;;3.06;100.00;97884.78;5057038;28;20032;-75
2024/02/23 09:55:18;;;;;;;0.50;0.50;;;;;;;3.19;100.00;97888.50;5040538;28;20415;-75
2024/02/23 09:57:45;;;;;;;0.50;0.50;;;;;;;3.29;100.00;97884.44;5040204;28;20059;-75
2024/02/23 10:00:11;;;;;;;0.50;0.50;;;;;;;3.37;100.00;97886.13;5056633;28;20082;-75
2024/02/23 10:02:36;;;;;;;0.50;0.50;;;;;;;3.46;100.00;97886.75;5040251;28;20029;-75
2024/02/23 10:05:02;;;;;;;0.50;0.50;;;;;;;3.55;100.00;97882.06;5040418;28;20443;-75
2024/02/23 10:07:28;;;;;;;0.50;0.50;;;;;;;3.65;100.00;97885.13;5039673;28;20360;-75
2024/02/23 10:09:55;;;;;;;0.50;0.50;;;;;;;3.81;100.00;97886.59;5039720;28;20087;-75
2024/02/23 10:12:21;;;;;;;0.50;0.50;;;;;;;3.92;100.00;97889.47;5040090;28;20093;-75
2024/02/23 10:14:46;;;;;;;0.50;0.50;;;;;;;3.95;100.00;97896.22;5056219;28;20029;-75
2024/02/23 10:17:12;;;;;;;0.50;0.50;;;;;;;4.03;100.00;97916.50;5056390;28;20363;-75
2024/02/23 10:19:38;;;;;;;0.50;0.50;;;;;;;4.09;100.00;97913.00;5039772;28;20033;-75
2024/02/23 10:22:04;;;;;;;0.60;0.60;;;;;;;4.15;100.00;97918.34;5056454;28;20111;-75
2024/02/23 10:24:30;;;;;;;0.50;0.50;;;;;;;4.19;100.00;97913.41;5039244;28;20386;-75
2024/02/23 10:26:56;;;;;;;0.50;0.50;;;;;;;4.25;100.00;97917.91;5072446;28;20025;-75
2024/02/23 10:29:24;;;;;;;0.50;0.50;;;;;;;4.36;100.00;97925.28;5072315;28;20398;-75
2024/02/23 10:31:52;;;;;;;0.50;0.50;;;;;;;4.55;100.00;97930.78;5055887;28;20043;-75
2024/02/23 10:34:19;;;;;;;0.50;0.50;;;;;;;4.56;100.00;97930.59;5072328;28;20462;-75
2024/02/23 10:36:47;;;;;;;0.50;0.50;;;;;;;4.48;100.00;97933.47;5056291;28;20498;-75
2024/02/23 10:39:17;;;;;;;0.50;0.50;;;;;;;4.52;100.00;97944.50;5072634;28;20358;-75
2024/02/23 10:41:51;;;;;;;0.50;0.50;;;;;;;4.54;100.00;97942.47;5039826;28;20024;-75
2024/02/23 10:44:18;;;;;;;0.50;0.50;;;;;;;4.55;100.00;97954.72;5055679;28;20442;-75
2024/02/23 10:46:45;;;;;;;0.50;0.50;;;;;;;4.54;100.00;97945.13;5055965;28;20024;-75
2024/02/23 10:49:11;;;;;;;0.40;0.40;;;;;;;4.47;100.00;97931.00;5039386;28;20028;-75
2024/02/23 10:51:39;;;;;;;0.50;0.50;;;;;;;4.54;100.00;97950.44;5055450;28;20104;-75
2024/02/23 10:54:04;;;;;;;0.50;0.50;;;;;;;4.60;100.00;97952.28;5072657;28;20040;-75
2024/02/23 10:56:30;;;;;;;0.50;0.50;;;;;;;4.73;100.00;97954.91;5039297;28;20036;-75
2024/02/23 10:58:56;;;;;;;0.50;0.50;;;;;;;4.82;100.00;97951.03;5055054;28;20086;-75
2024/02/23 11:01:23;;;;;;;0.50;0.50;;;;;;;4.93;100.00;97944.25;5039252;28;20124;-75
2024/02/23 11:03:50;;;;;;;0.50;0.50;;;;;;;5.00;100.00;97947.72;5055611;28;20108;-75
2024/02/23 11:06:20;;;;;;;0.50;0.50;;;;;;;5.07;100.00;97945.03;5039636;28;20024;-75
2024/02/23 11:08:48;;;;;;;0.50;0.50;;;;;;;5.12;100.00;97944.41;5040187;28;20127;-75
2024/02/23 11:11:15;;;;;;;0.50;0.50;;;;;;;5.13;100.00;97943.38;5039404;28;20123;-75
2024/02/23 11:13:43;;;;;;;0.50;0.50;;;;;;;5.12;100.00;97947.06;5039262;28;20458;-75
2024/02/23 11:16:09;;;;;;;0.50;0.50;;;;;;;5.12;100.00;97941.75;5055360;28;20025;-75
2024/02/23 11:18:36;;;;;;;0.50;0.50;;;;;;;5.18;100.00;97944.38;5055616;28;20052;-76
2024/02/23 11:21:04;;;;;;;0.60;0.60;;;;;;;5.19;100.00;97940.69;5022707;28;20521;-75
2024/02/23 11:23:44;;;;;;;0.50;0.50;;;;;;;5.24;100.00;97951.53;5039253;28;20398;-76
2024/02/23 11:26:11;;;;;;;0.55;0.55;;;;;;;5.29;100.00;97962.38;5072372;28;20032;-75
2024/02/23 11:28:53;;;;;;;0.50;0.50;;;;;;;5.40;100.00;97960.06;5055112;28;20082;-75